createdAt,value
2019-04-07T00:19:06.617Z,83.30
2019-04-07T00:32:59.594Z,83.60
2019-04-07T00:36:54.565Z,83.70
2019-04-07T00:40:57.699Z,84.60
2019-04-07T00:45:00.866Z,85.80
2019-04-07T00:49:05.069Z,86.30
2019-04-07T01:25:44.624Z,87.70
2019-04-07T01:29:41.900Z,87.80
2019-04-07T02:12:56.663Z,87.70
2019-04-07T02:17:33.625Z,87.80
2019-04-07T02:21:43.829Z,88.90
2019-04-07T03:05:05.328Z,88.90
2019-04-07T03:48:28.364Z,89.40
2019-04-07T03:52:40.498Z,90.20
2019-04-07T03:56:50.335Z,90.60
2019-04-07T04:01:16.203Z,90.40
2019-04-07T04:05:41.375Z,90.30
2019-04-07T04:09:54.329Z,90.40
2019-04-07T04:14:18.325Z,89.80
2019-04-07T04:18:24.346Z,90.40
2019-04-07T04:22:29.015Z,90.60
2019-04-07T04:26:32.873Z,90.20
2019-04-07T04:30:44.697Z,90.30
2019-04-07T04:34:45.245Z,90.50
2019-04-07T04:38:55.571Z,90.40
2019-04-07T04:42:58.226Z,90.70
2019-04-07T04:47:02.808Z,90.80
2019-04-07T04:51:06.647Z,91.10
2019-04-07T04:55:14.284Z,90.80
2019-04-07T04:59:16.711Z,90.50
2019-04-07T05:03:20.466Z,90.40
2019-04-07T05:07:30.116Z,90.40
2019-04-07T05:11:32.782Z,90.30
2019-04-07T05:15:40.089Z,90.40
2019-04-07T05:58:48.397Z,89.80
2019-04-07T06:02:47.106Z,89.30
2019-04-07T06:06:56.422Z,89.00
2019-04-07T06:11:04.074Z,88.70
2019-04-07T06:15:06.332Z,88.20
2019-04-07T06:19:13.448Z,87.60
2019-04-07T06:23:25.782Z,86.30
2019-04-07T06:27:33.672Z,86.60
2019-04-07T06:31:43.583Z,85.90
2019-04-07T06:35:49.931Z,84.20
2019-04-07T06:39:55.837Z,82.30
2019-04-07T06:44:21.116Z,79.90
2019-04-07T06:50:25.796Z,78.50
2019-04-07T06:54:42.518Z,78.40
2019-04-07T06:59:15.545Z,74.50
2019-04-07T07:03:59.742Z,75.70
2019-04-07T07:08:19.356Z,73.20
2019-04-07T07:12:46.115Z,72.70
2019-04-07T07:17:01.834Z,70.10
2019-04-07T07:21:33.973Z,69.10
2019-04-07T08:04:45.490Z,64.10
2019-04-07T08:08:47.814Z,63.70
2019-04-07T08:12:51.978Z,62.10
2019-04-07T08:16:55.507Z,58.40
2019-04-07T08:21:03.333Z,57.50
2019-04-07T09:04:18.909Z,53.50
2019-04-07T09:08:19.178Z,52.20
2019-04-07T09:12:32.234Z,52.90
2019-04-07T09:55:59.105Z,49.20
2019-04-07T10:00:23.026Z,49.00
2019-04-07T10:43:56.242Z,45.70
2019-04-07T10:48:06.989Z,44.90
2019-04-07T10:52:37.655Z,42.40
2019-04-07T10:56:52.377Z,39.90
2019-04-07T11:01:21.016Z,43.50
2019-04-07T11:05:44.787Z,43.80
2019-04-07T11:49:18.251Z,40.30
2019-04-07T11:54:02.130Z,39.50
2019-04-07T11:58:39.784Z,41.00
2019-04-07T12:03:00.806Z,40.50
2019-04-07T12:07:34.507Z,39.00
2019-04-07T12:23:44.415Z,37.80
2019-04-07T12:27:58.101Z,39.90
2019-04-07T13:11:36.924Z,38.10
2019-04-07T13:15:58.167Z,38.00
2019-04-07T13:20:28.721Z,36.40
2019-04-07T13:24:51.043Z,38.00
2019-04-07T14:08:38.744Z,41.20
2019-04-07T14:12:49.016Z,42.00
2019-04-07T14:17:15.475Z,42.20
2019-04-07T14:21:29.550Z,41.00
2019-04-07T15:02:08.391Z,45.60
2019-04-07T15:06:03.533Z,45.80
2019-04-07T15:10:27.618Z,42.50
2019-04-07T15:53:40.397Z,46.10
2019-04-07T16:36:55.134Z,49.60
2019-04-07T16:40:55.949Z,50.30
2019-04-07T16:44:59.658Z,49.60
2019-04-07T16:49:04.470Z,49.70
2019-04-07T16:53:13.807Z,51.30
2019-04-07T16:57:17.323Z,51.00
2019-04-07T17:01:27.688Z,52.30
2019-04-07T17:05:30.267Z,53.60
2019-04-07T17:09:37.675Z,52.70
2019-04-07T17:13:45.989Z,53.70
2019-04-07T17:17:54.699Z,53.80
2019-04-07T17:21:59.149Z,53.70
2019-04-07T17:26:08.347Z,52.80
2019-04-07T17:30:16.759Z,53.50
2019-04-07T17:34:20.429Z,54.50
2019-04-07T17:38:34.050Z,55.80
2019-04-07T18:21:58.033Z,60.40
2019-04-07T18:26:23.259Z,61.90
2019-04-07T18:30:41.953Z,58.60
2019-04-07T18:35:32.917Z,56.20
2019-04-07T18:39:51.817Z,59.00
2019-04-07T18:44:41.326Z,61.10
2019-04-07T18:49:02.100Z,61.30
2019-04-07T18:53:28.726Z,62.00
2019-04-07T18:57:45.086Z,62.90
2019-04-07T19:02:10.695Z,64.30
2019-04-07T19:45:32.866Z,57.10
2019-04-07T19:49:53.230Z,57.40
2019-04-07T20:33:18.739Z,63.70
2019-04-07T20:37:35.196Z,64.30
2019-04-07T20:41:54.895Z,62.30
2019-04-07T20:46:27.379Z,64.30
2019-04-07T21:29:52.552Z,65.00
2019-04-07T22:13:12.127Z,67.30
2019-04-07T22:56:14.007Z,68.40
2019-04-07T23:00:19.119Z,68.70
2019-04-07T23:04:31.820Z,68.50
2019-04-07T23:47:38.396Z,67.70
